Time;durP1;ratioP1;P1;durP2;ratioP2;P2;SDS_P1;SDS_P2;PMS_P1;PMS_P2;Temp;Humidity;BMP_temperature;BMP_pressure;BME280_temperature;BME280_humidity;BME280_pressure;Samples;Min_cycle;Max_cycle;Signal;HPM_P1;HPM_P2
2023/06/19 00:01:39;;;;;;;;;;;;;;;22.29;50.44;99986.31;7351499;19;19949;-62
2023/06/19 00:04:05;;;;;;;;;;;;;;;22.28;50.82;99987.28;7352912;19;19998;-62
2023/06/19 00:06:30;;;;;;;;;;;;;;;22.25;50.50;99987.53;7353663;19;20403;-62
2023/06/19 00:08:55;;;;;;;;;;;;;;;;;;7348351;19;20442;-62
2023/06/19 00:11:20;;;;;;;;;;;;;;;22.18;50.61;99989.84;7353323;19;19935;-62
2023/06/19 00:13:45;;;;;;;;;;;;;;;22.17;51.04;99984.69;7350109;19;19955;-62
2023/06/19 00:16:11;;;;;;;;;;;;;;;22.13;51.07;99978.75;7353807;19;20521;-62
2023/06/19 00:18:39;;;;;;;;;;;;;;;22.11;50.65;99980.72;7351852;19;19918;-63
2023/06/19 00:21:05;;;;;;;;;;;;;;;21.84;50.51;99946.53;7351239;19;19923;-62
2023/06/19 00:23:31;;;;;;;;;;;;;;;22.03;51.06;99975.97;7352803;19;19922;-63
2023/06/19 00:25:56;;;;;;;;;;;;;;;22.00;51.29;99978.06;7352990;19;19951;-62
2023/06/19 00:28:21;;;;;;;;;;;;;;;21.95;51.11;99973.13;7350468;19;19915;-62
2023/06/19 00:30:47;;;;;;;;;;;;;;;21.93;51.04;99972.38;7351913;19;19925;-62
2023/06/19 00:33:12;;;;;;;;;;;;;;;21.89;51.34;99968.28;7354197;19;19954;-62
2023/06/19 00:35:37;;;;;;;;;;;;;;;21.87;51.59;99967.56;7360512;19;19919;-61
2023/06/19 00:38:03;;;;;;;;;;;;;;;21.84;51.85;99967.81;7357689;19;19922;-62
2023/06/19 00:40:29;;;;;;;;;;;;;;;21.82;51.94;99964.44;7357819;19;20909;-62
2023/06/19 00:42:54;;;;;;;;;;;;;;;21.81;51.46;99968.06;7354069;19;19923;-62
2023/06/19 00:45:20;;;;;;;;;;;;;;;21.78;51.10;99968.31;7358917;19;20616;-62
2023/06/19 00:47:45;;;;;;;;;;;;;;;21.75;50.49;99960.59;7356542;19;19915;-62
2023/06/19 00:50:11;;;;;;;;;;;;;;;21.71;50.32;99964.47;7355383;19;19922;-62
2023/06/19 00:52:36;;;;;;;;;;;;;;;21.67;50.70;99971.00;7357011;19;19911;-62
2023/06/19 00:55:02;;;;;;;;;;;;;;;21.63;51.03;99958.91;7356247;19;19922;-62
2023/06/19 00:57:28;;;;;;;;;;;;;;;21.56;51.63;99963.06;7358632;19;19960;-62
2023/06/19 00:59:53;;;;;;;;;;;;;;;21.53;51.31;99960.63;7359154;19;19914;-63
2023/06/19 01:02:23;;;;;;;;;;;;;;;21.16;51.48;99902.47;7353896;19;19942;-62
2023/06/19 01:04:48;;;;;;;;;;;;;;;21.45;51.43;99959.44;7359974;19;19923;-62
2023/06/19 01:07:16;;;;;;;;;;;;;;;21.42;51.41;99953.53;7356964;19;20482;-62
2023/06/19 01:09:48;;;;;;;;;;;;;;;21.39;50.98;99953.75;7360500;19;19945;-62
2023/06/19 01:12:34;;;;;;;;;;;;;;;21.35;50.81;99953.19;7355736;19;19927;-62
2023/06/19 01:15:02;;;;;;;;;;;;;;;21.32;51.24;99947.25;7353979;19;19953;-62
2023/06/19 01:17:28;;;;;;;;;;;;;;;21.28;51.23;99949.25;7357111;19;20631;-62
2023/06/19 01:19:57;;;;;;;;;;;;;;;21.24;51.85;99943.38;7357676;19;19919;-62
2023/06/19 01:22:26;;;;;;;;;;;;;;;21.22;51.18;99949.75;7357605;19;19946;-62
2023/06/19 01:24:51;;;;;;;;;;;;;;;21.19;50.78;99956.16;7355353;19;20340;-62
2023/06/19 01:27:16;;;;;;;;;;;;;;;21.17;50.89;99951.94;7355738;19;19927;-62
2023/06/19 01:29:42;;;;;;;;;;;;;;;21.14;50.81;99952.19;7356309;19;20253;-62
2023/06/19 01:32:13;;;;;;;;;;;;;;;21.10;50.72;99956.88;7357481;19;19922;-62
2023/06/19 01:34:38;;;;;;;;;;;;;;;21.06;51.05;99943.97;7354913;19;19931;-62
2023/06/19 01:37:05;;;;;;;;;;;;;;;21.02;51.25;99938.03;7359788;19;19942;-62
2023/06/19 01:39:31;;;;;;;;;;;;;;;20.98;51.20;99950.75;7358580;19;19927;-62
2023/06/19 01:41:57;;;;;;;;;;;;;;;20.93;51.03;99939.63;7352573;19;19960;-62
2023/06/19 01:44:23;;;;;;;;;;;;;;;20.89;51.43;99943.47;7352563;19;20371;-62
2023/06/19 01:46:50;;;;;;;;;;;;;;;20.86;51.65;99942.88;7353799;19;19946;-60
2023/06/19 01:49:15;;;;;;;;;;;;;;;20.83;51.44;99943.09;7355710;19;20347;-62
2023/06/19 01:51:40;;;;;;;;;;;;;;;20.79;51.63;99941.66;7356942;19;19919;-62
2023/06/19 01:54:07;;;;;;;;;;;;;;;20.76;51.70;99941.88;7357700;19;20798;-62
2023/06/19 01:56:32;;;;;;;;;;;;;;;20.72;51.14;99943.94;7356206;19;19923;-63
2023/06/19 01:58:57;;;;;;;;;;;;;;;20.71;52.04;99942.25;7352906;19;19918;-63
2023/06/19 02:01:23;;;;;;;;;;;;;;;20.68;52.02;99934.50;7359702;19;19926;-62
2023/06/19 02:03:48;;;;;;;;;;;;;;;20.65;51.63;99930.28;7359598;19;19918;-62
2023/06/19 02:06:13;;;;;;;;;;;;;;;20.28;52.31;99871.25;7357852;19;19926;-62
2023/06/19 02:08:38;;;;;;;;;;;;;;;20.59;52.40;99924.63;7354518;19;19954;-62
2023/06/19 02:11:04;;;;;;;;;;;;;;;20.57;52.03;99926.53;7356417;19;19918;-62
2023/06/19 02:13:29;;;;;;;;;;;;;;;20.54;52.38;99932.94;7357912;19;19934;-62
2023/06/19 02:15:54;;;;;;;;;;;;;;;20.52;51.86;99923.38;7353556;19;19982;-63
2023/06/19 02:18:19;;;;;;;;;;;;;;;20.49;52.15;99924.47;7353823;19;19946;-61
2023/06/19 02:20:45;;;;;;;;;;;;;;;20.45;52.46;99921.19;7359792;19;19918;-62
2023/06/19 02:23:10;;;;;;;;;;;;;;;20.42;53.03;99923.22;7358997;19;20026;-62
2023/06/19 02:25:36;;;;;;;;;;;;;;;20.38;52.74;99914.66;7357182;19;20167;-62
2023/06/19 02:28:01;;;;;;;;;;;;;;;20.34;52.38;99915.84;7353437;19;20017;-62
2023/06/19 02:30:26;;;;;;;;;;;;;;;20.30;52.91;99925.00;7355381;19;19939;-62
2023/06/19 02:32:51;;;;;;;;;;;;;;;20.25;52.70;99916.53;7359167;19;20621;-62
2023/06/19 02:35:17;;;;;;;;;;;;;;;20.21;53.07;99915.06;7358354;19;19915;-62
2023/06/19 02:37:42;;;;;;;;;;;;;;;20.16;53.12;99917.22;7356338;19;19926;-62
2023/06/19 02:40:09;;;;;;;;;;;;;;;20.12;53.11;99921.06;7351766;19;19911;-62
2023/06/19 02:42:34;;;;;;;;;;;;;;;20.08;53.10;99919.63;7356365;19;20475;-62
2023/06/19 02:45:03;;;;;;;;;;;;;;;20.04;53.30;99923.44;7353369;19;19922;-62
2023/06/19 02:47:29;;;;;;;;;;;;;;;19.67;53.04;99863.44;7358080;19;19938;-62
2023/06/19 02:49:54;;;;;;;;;;;;;;;19.96;53.38;99916.91;7359184;19;20629;-62
2023/06/19 02:52:19;;;;;;;;;;;;;;;19.91;53.75;99913.75;7355650;19;19917;-62
2023/06/19 02:54:45;;;;;;;;;;;;;;;19.88;53.58;99924.59;7350065;19;19927;-62
2023/06/19 02:57:10;;;;;;;;;;;;;;;19.86;53.58;99923.84;7354551;19;20624;-62
2023/06/19 02:59:35;;;;;;;;;;;;;;;19.81;54.27;99918.03;7358574;19;19911;-63
2023/06/19 03:02:00;;;;;;;;;;;;;;;19.79;53.91;99914.66;7356183;19;20673;-62
2023/06/19 03:04:25;;;;;;;;;;;;;;;19.77;54.02;99929.84;7353399;19;20055;-63
2023/06/19 03:06:51;;;;;;;;;;;;;;;19.75;54.18;99923.78;7354648;19;19926;-62
2023/06/19 03:09:16;;;;;;;;;;;;;;;19.73;54.17;99920.41;7356161;19;19918;-62
2023/06/19 03:11:41;;;;;;;;;;;;;;;19.71;54.56;99922.31;7354918;19;19919;-63
2023/06/19 03:14:07;;;;;;;;;;;;;;;19.69;54.68;99924.25;7354687;19;19922;-62
2023/06/19 03:16:33;;;;;;;;;;;;;;;19.68;54.07;99922.56;7352476;19;19926;-62
2023/06/19 03:18:58;;;;;;;;;;;;;;;19.67;54.20;99920.88;7335262;19;20374;-62
2023/06/19 03:21:23;;;;;;;;;;;;;;;19.64;54.17;99921.94;7357529;19;19911;-63
2023/06/19 03:23:48;;;;;;;;;;;;;;;19.62;54.18;99921.19;7348320;19;20039;-62
2023/06/19 03:26:14;;;;;;;;;;;;;;;19.60;53.71;99914.31;7356837;19;19926;-62
2023/06/19 03:28:39;;;;;;;;;;;;;;;19.58;54.06;99921.50;7355963;19;19929;-62
2023/06/19 03:31:08;;;;;;;;;;;;;;;19.54;54.30;99925.31;7354542;19;20153;-62
2023/06/19 03:33:33;;;;;;;;;;;;;;;19.49;54.04;99923.00;7353923;19;20624;-62
2023/06/19 03:35:58;;;;;;;;;;;;;;;19.46;54.26;99931.16;7352469;19;20524;-62
2023/06/19 03:38:24;;;;;;;;;;;;;;;19.42;54.28;99933.19;7357140;19;19915;-62
2023/06/19 03:40:49;;;;;;;;;;;;;;;19.38;54.29;99926.41;7356815;19;20019;-62
2023/06/19 03:43:14;;;;;;;;;;;;;;;19.33;54.88;99933.84;7356790;19;19919;-62
2023/06/19 03:45:40;;;;;;;;;;;;;;;19.31;54.89;99935.78;7356554;19;19926;-62
2023/06/19 03:48:05;;;;;;;;;;;;;;;19.27;54.81;99934.28;7356537;19;19915;-62
2023/06/19 03:50:30;;;;;;;;;;;;;;;19.23;55.25;99927.50;7354496;19;19954;-62
2023/06/19 03:52:56;;;;;;;;;;;;;;;19.19;55.08;99933.97;7353977;19;20881;-62
2023/06/19 03:55:21;;;;;;;;;;;;;;;19.17;55.28;99946.47;7356880;19;19927;-61
2023/06/19 03:57:46;;;;;;;;;;;;;;;19.14;55.38;99941.41;7358030;19;19919;-62
2023/06/19 04:00:14;;;;;;;;;;;;;;;19.12;55.57;99938.03;7354233;19;19939;-62
2023/06/19 04:02:40;;;;;;;;;;;;;;;19.09;55.58;99940.88;7354319;19;19922;-62
2023/06/19 04:05:05;;;;;;;;;;;;;;;19.08;55.93;99939.19;7358715;19;19910;-62
2023/06/19 04:07:31;;;;;;;;;;;;;;;19.06;55.48;99941.06;7353682;19;19938;-62
2023/06/19 04:09:57;;;;;;;;;;;;;;;19.03;55.67;99936.00;7354301;19;19911;-62
2023/06/19 04:12:22;;;;;;;;;;;;;;;19.00;55.52;99946.81;7356853;19;19923;-62
2023/06/19 04:14:47;;;;;;;;;;;;;;;18.98;55.67;99948.72;7351463;19;19914;-62
2023/06/19 04:17:14;;;;;;;;;;;;;;;18.93;56.24;99941.94;7354891;19;20238;-62
2023/06/19 04:19:39;;;;;;;;;;;;;;;18.92;55.77;99945.53;7353491;19;19926;-62
2023/06/19 04:22:04;;;;;;;;;;;;;;;18.91;55.54;99938.56;7355672;19;19915;-62
2023/06/19 04:24:30;;;;;;;;;;;;;;;18.90;55.91;99936.84;7349594;19;19928;-62
2023/06/19 04:26:55;;;;;;;;;;;;;;;18.88;55.93;99937.94;7354451;19;20402;-62
2023/06/19 04:29:20;;;;;;;;;;;;;;;18.86;55.89;99940.69;7354289;19;20339;-62
2023/06/19 04:31:46;;;;;;;;;;;;;;;18.85;56.27;99940.78;7354036;19;19923;-62
2023/06/19 04:34:16;;;;;;;;;;;;;;;18.84;56.22;99947.03;7355164;19;20378;-62
2023/06/19 04:36:41;;;;;;;;;;;;;;;18.82;56.44;99948.94;7355393;19;19923;-62
2023/06/19 04:39:06;;;;;;;;;;;;;;;18.80;56.37;99949.03;7351618;19;20628;-62
2023/06/19 04:41:32;;;;;;;;;;;;;;;18.77;56.16;99946.59;7346288;19;20273;-62
2023/06/19 04:43:57;;;;;;;;;;;;;;;18.78;56.17;99944.81;7355529;19;19982;-62
2023/06/19 04:46:22;;;;;;;;;;;;;;;18.75;56.46;99948.50;7349939;19;19915;-62
2023/06/19 04:48:50;;;;;;;;;;;;;;;18.76;56.52;99959.94;7356577;19;20340;-62
2023/06/19 04:51:20;;;;;;;;;;;;;;;18.73;56.78;99945.13;7351683;19;19919;-62
2023/06/19 04:53:45;;;;;;;;;;;;;;;18.73;56.80;99950.41;7353570;19;19927;-62
2023/06/19 04:56:10;;;;;;;;;;;;;;;18.73;56.32;99954.84;7346529;19;19918;-62
2023/06/19 04:58:35;;;;;;;;;;;;;;;18.72;56.51;99948.72;7353276;19;19935;-62
2023/06/19 05:01:01;;;;;;;;;;;;;;;18.72;56.80;99943.44;7354726;19;19919;-62
2023/06/19 05:03:26;;;;;;;;;;;;;;;18.72;57.10;99945.22;7357615;19;19934;-62
2023/06/19 05:05:51;;;;;;;;;;;;;;;18.71;56.88;99952.31;7348846;19;20606;-62
2023/06/19 05:08:16;;;;;;;;;;;;;;;18.70;56.95;99953.25;7355585;19;19929;-63
2023/06/19 05:10:42;;;;;;;;;;;;;;;18.69;56.92;99959.50;7350833;19;19954;-61
2023/06/19 05:13:07;;;;;;;;;;;;;;;18.67;57.10;99961.38;7354785;19;19960;-63
2023/06/19 05:15:32;;;;;;;;;;;;;;;18.67;56.95;99956.09;7350470;19;19927;-62
2023/06/19 05:17:57;;;;;;;;;;;;;;;18.66;57.58;99949.13;7355568;19;20444;-62
2023/06/19 05:20:23;;;;;;;;;;;;;;;18.66;57.28;99960.53;7353740;19;19930;-62
2023/06/19 05:22:48;;;;;;;;;;;;;;;18.67;57.25;99950.78;7358768;19;19918;-62
2023/06/19 05:25:13;;;;;;;;;;;;;;;18.68;57.40;99963.09;7360360;19;20671;-61
2023/06/19 05:27:38;;;;;;;;;;;;;;;18.69;57.30;99961.28;7361286;19;19986;-62
2023/06/19 05:30:04;;;;;;;;;;;;;;;18.68;57.13;99963.09;7360656;19;19931;-62
2023/06/19 05:32:29;;;;;;;;;;;;;;;18.69;57.27;99969.22;7357313;19;19927;-62
2023/06/19 05:34:54;;;;;;;;;;;;;;;18.70;57.59;99968.28;7356752;19;19922;-62
2023/06/19 05:37:21;;;;;;;;;;;;;;;18.50;57.55;99932.56;7360529;19;20237;-62
2023/06/19 05:39:47;;;;;;;;;;;;;;;18.71;57.21;99960.25;7359450;19;19929;-62
2023/06/19 05:42:12;;;;;;;;;;;;;;;18.72;57.41;99959.31;7358513;19;19930;-62
2023/06/19 05:44:37;;;;;;;;;;;;;;;18.72;56.92;99956.66;7356432;19;19919;-62
2023/06/19 05:47:02;;;;;;;;;;;;;;;18.72;57.29;99959.31;7360221;19;19915;-63
2023/06/19 05:49:29;;;;;;;;;;;;;;;18.73;57.21;99970.72;7358781;19;19926;-62
2023/06/19 05:51:58;;;;;;;;;;;;;;;18.71;56.97;99956.78;7353614;19;19979;-62
2023/06/19 05:54:24;;;;;;;;;;;;;;;18.72;56.92;99975.16;7359596;19;19962;-62
2023/06/19 05:56:50;;;;;;;;;;;;;;;18.71;57.42;99965.53;7355617;19;20298;-62
2023/06/19 05:59:15;;;;;;;;;;;;;;;18.72;57.40;99964.59;7351136;19;19911;-62
2023/06/19 06:01:40;;;;;;;;;;;;;;;18.72;57.37;99959.31;7353696;19;19915;-62
2023/06/19 06:04:06;;;;;;;;;;;;;;;18.73;57.29;99966.28;7351192;19;20604;-60
2023/06/19 06:06:31;;;;;;;;;;;;;;;18.74;57.84;99962.66;7350626;19;19949;-62
2023/06/19 06:08:56;;;;;;;;;;;;;;;18.74;57.90;99957.38;7353094;19;19915;-62
2023/06/19 06:11:22;;;;;;;;;;;;;;;18.75;57.90;99964.34;7353317;19;19929;-62
2023/06/19 06:13:47;;;;;;;;;;;;;;;18.78;57.96;99960.69;7354478;19;19915;-62
2023/06/19 06:16:12;;;;;;;;;;;;;;;18.80;57.77;99964.91;7356683;19;19923;-62
2023/06/19 06:18:38;;;;;;;;;;;;;;;18.82;58.03;99963.00;7358775;19;19982;-62
2023/06/19 06:21:04;;;;;;;;;;;;;;;18.85;58.16;99965.41;7356745;19;20407;-62
2023/06/19 06:23:29;;;;;;;;;;;;;;;18.86;57.98;99956.56;7352073;19;19915;-62
2023/06/19 06:26:01;;;;;;;;;;;;;;;18.90;57.94;99968.59;7354447;19;20526;-62
2023/06/19 06:28:26;;;;;;;;;;;;;;;18.92;58.41;99968.50;7353006;19;20363;-62
2023/06/19 06:30:51;;;;;;;;;;;;;;;18.93;58.00;99968.41;7357565;19;19918;-62
2023/06/19 06:33:17;;;;;;;;;;;;;;;18.97;58.35;99970.84;7356795;19;20756;-62
2023/06/19 06:35:42;;;;;;;;;;;;;;;18.99;57.88;99971.56;7358590;19;19939;-62
2023/06/19 06:38:07;;;;;;;;;;;;;;;19.03;58.06;99975.72;7354857;19;20358;-62
2023/06/19 06:40:32;;;;;;;;;;;;;;;19.05;58.80;99974.63;7359003;19;19929;-62
2023/06/19 06:42:58;;;;;;;;;;;;;;;19.08;58.38;99986.81;7352523;19;20502;-62
2023/06/19 06:45:23;;;;;;;;;;;;;;;19.10;58.79;99979.59;7353315;19;19926;-62
2023/06/19 06:47:48;;;;;;;;;;;;;;;19.11;58.85;99982.16;7358365;19;19946;-62
2023/06/19 06:50:13;;;;;;;;;;;;;;;19.15;58.60;99982.78;7353116;19;19939;-62
2023/06/19 06:52:39;;;;;;;;;;;;;;;19.18;58.40;99994.00;7330403;19;19922;-62
2023/06/19 06:55:05;;;;;;;;;;;;;;;19.21;58.83;99992.97;7344482;19;19926;-63
2023/06/19 06:57:30;;;;;;;;;;;;;;;19.25;58.46;99998.88;7356148;19;19921;-62
2023/06/19 06:59:55;;;;;;;;;;;;;;;19.27;58.82;99997.81;7352152;19;20014;-61
2023/06/19 07:02:20;;;;;;;;;;;;;;;18.98;58.53;99944.28;7322861;19;20167;-62
2023/06/19 07:04:46;;;;;;;;;;;;;;;19.36;58.58;100001.59;7346063;19;19926;-62
2023/06/19 07:07:11;;;;;;;;;;;;;;;19.39;58.83;100007.53;7346131;19;19958;-62
2023/06/19 07:09:37;;;;;;;;;;;;;;;19.43;58.98;99997.59;7346835;19;19922;-62
2023/06/19 07:12:04;;;;;;;;;;;;;;;19.48;58.73;100005.22;7346649;19;20645;-62
2023/06/19 07:14:30;;;;;;;;;;;;;;;19.53;58.94;100003.09;7346934;19;20415;-62
2023/06/19 07:16:55;;;;;;;;;;;;;;;19.59;59.07;100007.94;7347623;19;19926;-62
2023/06/19 07:19:20;;;;;;;;;;;;;;;19.66;58.86;100017.16;7347948;19;19915;-62
2023/06/19 07:21:45;;;;;;;;;;;;;;;19.75;59.39;100013.84;7348820;19;19923;-62
2023/06/19 07:24:11;;;;;;;;;;;;;;;19.83;59.16;100016.81;7347649;19;19919;-62
2023/06/19 07:26:36;;;;;;;;;;;;;;;19.90;59.20;100012.75;7345334;19;20714;-62
2023/06/19 07:29:01;;;;;;;;;;;;;;;20.00;59.06;100014.75;7346534;19;19922;-62
2023/06/19 07:31:27;;;;;;;;;;;;;;;20.09;59.36;100017.56;7346740;19;20725;-62
2023/06/19 07:33:52;;;;;;;;;;;;;;;20.16;59.11;100012.66;7344378;19;20449;-62
2023/06/19 07:36:17;;;;;;;;;;;;;;;20.21;59.27;100013.16;7347134;19;19927;-62
2023/06/19 07:38:43;;;;;;;;;;;;;;;20.27;58.80;100010.06;7341633;19;20355;-62
2023/06/19 07:41:09;;;;;;;;;;;;;;;20.32;58.83;100018.50;7344045;19;19952;-61
2023/06/19 07:43:35;;;;;;;;;;;;;;;20.37;58.96;100013.72;7344653;19;20422;-62
2023/06/19 07:46:00;;;;;;;;;;;;;;;20.41;58.30;100015.19;7331217;19;19919;-62
2023/06/19 07:48:25;;;;;;;;;;;;;;;20.47;58.46;100012.09;7332139;19;19990;-62
2023/06/19 07:50:51;;;;;;;;;;;;;;;20.52;58.53;100016.22;7335076;19;19930;-62
2023/06/19 07:53:16;;;;;;;;;;;;;;;20.54;57.97;100016.97;7344225;19;19926;-62
2023/06/19 07:55:41;;;;;;;;;;;;;;;20.57;57.88;100008.75;7340284;19;19911;-62
2023/06/19 07:58:07;;;;;;;;;;;;;;;20.59;58.17;100009.50;7343462;19;19927;-62
2023/06/19 08:00:32;;;;;;;;;;;;;;;20.61;57.78;100007.56;7340234;19;19932;-63
2023/06/19 08:02:57;;;;;;;;;;;;;;;20.60;57.51;100009.38;7342133;19;19934;-62
2023/06/19 08:05:22;;;;;;;;;;;;;;;20.62;57.61;100014.56;7342417;19;20010;-62
2023/06/19 08:07:48;;;;;;;;;;;;;;;20.62;57.72;100014.56;7339326;19;19919;-62
2023/06/19 08:10:13;;;;;;;;;;;;;;;20.63;57.69;100016.25;7342826;19;20661;-62
2023/06/19 08:12:38;;;;;;;;;;;;;;;20.66;57.82;100022.19;7343936;19;19933;-62
2023/06/19 08:15:04;;;;;;;;;;;;;;;20.67;57.26;100007.09;7343016;19;19934;-62
2023/06/19 08:17:29;;;;;;;;;;;;;;;20.68;57.53;100014.09;7345930;19;19956;-62
2023/06/19 08:19:54;;;;;;;;;;;;;;;20.71;57.42;100013.88;7342343;19;19960;-62
2023/06/19 08:22:20;;;;;;;;;;;;;;;20.73;57.40;100011.94;7342756;19;19918;-61
2023/06/19 08:24:45;;;;;;;;;;;;;;;20.76;57.05;100005.56;7343343;19;19926;-61
2023/06/19 08:27:10;;;;;;;;;;;;;;;20.78;57.46;100017.75;7345653;19;20231;-62
2023/06/19 08:29:35;;;;;;;;;;;;;;;20.81;57.10;100020.19;7344176;19;19934;-62
2023/06/19 08:32:01;;;;;;;;;;;;;;;20.85;56.87;100013.69;7345832;19;20486;-62
2023/06/19 08:34:27;;;;;;;;;;;;;;;20.89;56.89;100020.44;7344281;19;19927;-62
2023/06/19 08:36:52;;;;;;;;;;;;;;;20.93;56.83;100018.38;7344042;19;19922;-62
2023/06/19 08:39:20;;;;;;;;;;;;;;;20.95;56.67;100017.31;7342868;19;20290;-62
2023/06/19 08:41:45;;;;;;;;;;;;;;;21.00;56.98;100019.63;7345655;19;20677;-62
2023/06/19 08:44:10;;;;;;;;;;;;;;;21.06;56.61;100018.31;7342828;19;19915;-62
2023/06/19 08:46:38;;;;;;;;;;;;;;;21.13;57.08;100019.50;7344239;19;20420;-62
2023/06/19 08:49:06;;;;;;;;;;;;;;;21.23;56.97;100017.81;7344085;19;19926;-63
2023/06/19 08:51:31;;;;;;;;;;;;;;;21.32;56.99;100024.28;7345205;19;19926;-62
2023/06/19 08:54:00;;;;;;;;;;;;;;;21.40;57.00;100019.22;7346388;19;19911;-62
2023/06/19 08:56:25;;;;;;;;;;;;;;;21.46;56.38;100016.91;7347856;19;19926;-61
2023/06/19 08:58:51;;;;;;;;;;;;;;;21.54;56.38;100004.81;7351941;19;19930;-62
2023/06/19 09:01:17;;;;;;;;;;;;;;;21.59;56.25;100014.09;7351222;19;20697;-62
2023/06/19 09:03:42;;;;;;;;;;;;;;;21.64;55.68;100025.22;7351648;19;19915;-62
2023/06/19 09:06:08;;;;;;;;;;;;;;;21.69;55.86;100014.22;7352004;19;20022;-62
2023/06/19 09:08:34;;;;;;;;;;;;;;;21.72;55.42;100012.19;7349840;19;19940;-62
2023/06/19 09:11:02;;;;;;;;;;;;;;;21.55;55.35;99978.16;7351899;19;20656;-62
2023/06/19 09:13:29;;;;;;;;;;;;;;;21.81;55.31;100021.22;7350364;19;19955;-62
2023/06/19 09:16:02;;;;;;;;;;;;;;;21.84;55.35;100007.69;7351187;19;20410;-62
2023/06/19 09:18:28;;;;;;;;;;;;;;;21.87;55.37;100004.78;7350706;19;19919;-62
2023/06/19 09:20:54;;;;;;;;;;;;;;;21.93;55.17;100020.22;7350803;19;19922;-62
2023/06/19 09:23:20;;;;;;;;;;;;;;;22.00;55.18;100015.28;7351411;19;19928;-62
2023/06/19 09:25:52;;;;;;;;;;;;;;;22.05;55.31;100018.41;7350217;19;20006;-63
2023/06/19 09:28:18;;;;;;;;;;;;;;;22.12;55.27;100014.31;7349197;19;19926;-62
2023/06/19 09:30:53;;;;;;;;;;;;;;;22.18;55.01;100016.47;7350064;19;19940;-63
2023/06/19 09:33:18;;;;;;;;;;;;;;;22.30;55.06;100016.41;7349626;19;20676;-62
2023/06/19 09:35:43;;;;;;;;;;;;;;;22.42;54.91;100016.25;7352466;19;19939;-62
2023/06/19 09:38:08;;;;;;;;;;;;;;;22.58;54.83;100020.31;7348905;19;19998;-62
2023/06/19 09:40:34;;;;;;;;;;;;;;;22.74;54.62;100015.38;7350501;19;20334;-63
2023/06/19 09:43:01;;;;;;;;;;;;;;;22.93;54.69;100026.19;7349994;19;19979;-62
2023/06/19 09:45:28;;;;;;;;;;;;;;;23.13;54.32;100021.81;7351533;19;19919;-62
2023/06/19 09:47:54;;;;;;;;;;;;;;;23.31;54.09;100019.38;7350152;19;19915;-62
2023/06/19 09:50:22;;;;;;;;;;;;;;;23.42;53.33;100013.97;7347902;19;19943;-63
2023/06/19 09:52:50;;;;;;;;;;;;;;;23.50;53.45;100014.13;7350810;19;19934;-62
2023/06/19 09:55:17;;;;;;;;;;;;;;;23.66;53.14;100010.16;7350017;19;19926;-63
2023/06/19 09:57:43;;;;;;;;;;;;;;;23.84;53.50;100008.53;7350834;19;19922;-63
2023/06/19 10:00:12;;;;;;;;;;;;;;;24.11;53.91;100015.03;7350636;19;19922;-62
2023/06/19 10:02:41;;;;;;;;;;;;;;;24.42;53.62;100019.28;7350308;19;20768;-62
2023/06/19 10:05:12;;;;;;;;;;;;;;;24.76;54.22;100006.34;7350741;19;19926;-62
2023/06/19 10:07:38;;;;;;;;;;;;;;;25.15;53.53;100013.47;7351210;19;20371;-62
2023/06/19 10:10:07;;;;;;;;;;;;;;;25.53;53.61;100018.66;7348072;19;19930;-63
2023/06/19 10:12:36;;;;;;;;;;;;;;;25.86;52.92;100011.94;7351386;19;19926;-62
2023/06/19 10:15:27;;;;;;;;;;;;;;;26.12;52.39;100009.34;7350272;19;20547;-62
2023/06/19 10:18:00;;;;;;;;;;;;;;;26.33;51.31;100013.56;7350468;19;19915;-62
2023/06/19 10:20:25;;;;;;;;;;;;;;;26.47;50.77;100004.19;7349096;19;20404;-62
2023/06/19 10:22:51;;;;;;;;;;;;;;;26.57;49.65;100008.47;7348738;19;19927;-62
2023/06/19 10:25:23;;;;;;;;;;;;;;;26.61;49.69;100009.84;7350004;19;20467;-62
2023/06/19 10:27:52;;;;;;;;;;;;;;;26.69;49.15;100009.06;7347026;19;19918;-62
2023/06/19 10:30:20;;;;;;;;;;;;;;;26.77;48.90;99997.56;7348055;19;19971;-62
2023/06/19 10:32:48;;;;;;;;;;;;;;;26.82;48.65;100000.63;7344252;19;19960;-62
2023/06/19 10:35:14;;;;;;;;;;;;;;;26.89;47.84;100007.88;7348792;19;20634;-62
2023/06/19 10:37:40;;;;;;;;;;;;;;;26.98;48.20;100002.56;7349045;19;20361;-63
2023/06/19 10:40:09;;;;;;;;;;;;;;;27.15;48.69;100015.94;7346518;19;19918;-62
2023/06/19 10:42:38;;;;;;;;;;;;;;;27.38;48.46;100012.72;7347838;19;20363;-62
2023/06/19 10:45:07;;;;;;;;;;;;;;;27.29;47.96;99968.94;7348370;19;19918;-62
2023/06/19 10:47:32;;;;;;;;;;;;;;;27.72;47.88;100010.03;7348769;19;19942;-62
2023/06/19 10:49:58;;;;;;;;;;;;;;;27.82;46.77;100020.63;7349938;19;19948;-63
2023/06/19 10:52:23;;;;;;;;;;;;;;;27.57;46.30;99963.34;7348818;19;19914;-62
2023/06/19 10:54:54;;;;;;;;;;;;;;;27.80;46.00;100017.28;7348833;19;19919;-63
2023/06/19 10:57:27;;;;;;;;;;;;;;;27.77;46.65;100010.38;7350421;19;20627;-63
2023/06/19 10:59:53;;;;;;;;;;;;;;;27.85;46.52;100021.16;7350044;19;20614;-62
2023/06/19 11:02:18;;;;;;;;;;;;;;;27.98;47.06;100015.34;7347665;19;19978;-63
2023/06/19 11:04:43;;;;;;;;;;;;;;;28.23;47.77;100010.00;7347182;19;19937;-63
2023/06/19 11:07:09;;;;;;;;;;;;;;;28.53;47.42;100009.38;7349628;19;19922;-62
2023/06/19 11:09:34;;;;;;;;;;;;;;;28.85;47.58;100007.72;7346163;19;19929;-63
2023/06/19 11:12:00;;;;;;;;;;;;;;;29.23;47.64;100005.31;7348925;19;19923;-63
2023/06/19 11:14:29;;;;;;;;;;;;;;;29.69;48.07;99999.09;7348276;19;19988;-63
2023/06/19 11:16:54;;;;;;;;;;;;;;;30.13;46.71;99993.16;7347580;19;19934;-63
2023/06/19 11:19:20;;;;;;;;;;;;;;;30.58;47.06;99996.88;7344281;19;19914;-62
2023/06/19 11:21:47;;;;;;;;;;;;;;;31.05;47.28;99990.38;7348142;19;19931;-62
2023/06/19 11:24:13;;;;;;;;;;;;;;;31.56;47.08;99995.88;7344647;19;20264;-63
2023/06/19 11:26:39;;;;;;;;;;;;;;;32.08;46.36;100005.66;7348183;19;19927;-63
2023/06/19 11:29:15;;;;;;;;;;;;;;;32.57;46.04;99999.53;7349235;19;19950;-63
2023/06/19 11:31:40;;;;;;;;;;;;;;;32.96;44.28;99993.63;7350895;19;19944;-63
2023/06/19 11:34:06;;;;;;;;;;;;;;;33.18;43.93;99988.13;7345618;19;20091;-63
2023/06/19 11:36:31;;;;;;;;;;;;;;;33.26;42.50;99991.53;7346858;19;19926;-62
2023/06/19 11:38:57;;;;;;;;;;;;;;;33.20;41.74;99981.50;7349353;19;20489;-62
2023/06/19 11:41:27;;;;;;;;;;;;;;;33.17;41.16;99989.19;7349149;19;19922;-62
2023/06/19 11:43:58;;;;;;;;;;;;;;;32.93;40.94;99939.91;7345764;19;19927;-62
2023/06/19 11:46:28;;;;;;;;;;;;;;;33.25;40.58;99986.28;7347714;19;19918;-63
2023/06/19 11:48:53;;;;;;;;;;;;;;;33.38;40.33;99990.94;7346011;19;19994;-63
2023/06/19 11:51:18;;;;;;;;;;;;;;;33.29;40.19;99945.09;7349753;19;19911;-63
2023/06/19 11:53:44;;;;;;;;;;;;;;;33.76;40.35;99989.50;7345437;19;19918;-63
2023/06/19 11:56:09;;;;;;;;;;;;;;;34.03;40.13;99997.72;7349219;19;20258;-62
2023/06/19 11:58:34;;;;;;;;;;;;;;;34.38;40.78;99986.75;7347363;19;20584;-63
2023/06/19 12:00:59;;;;;;;;;;;;;;;34.76;40.48;99990.50;7347329;19;19922;-63
2023/06/19 12:03:25;;;;;;;;;;;;;;;35.15;39.95;99983.38;7347840;19;19934;-62
2023/06/19 12:05:50;;;;;;;;;;;;;;;35.53;38.41;99996.25;7346745;19;20454;-63
2023/06/19 12:08:15;;;;;;;;;;;;;;;35.84;37.66;99982.75;7347384;19;19929;-63
2023/06/19 12:10:41;;;;;;;;;;;;;;;36.10;37.62;99986.38;7345317;19;19953;-62
2023/06/19 12:13:06;;;;;;;;;;;;;;;36.40;38.08;99992.03;7347656;19;19968;-62
2023/06/19 12:15:32;;;;;;;;;;;;;;;36.71;37.47;99988.44;7345193;19;20728;-62
2023/06/19 12:17:58;;;;;;;;;;;;;;;37.04;37.12;99987.31;7346198;19;19923;-63
2023/06/19 12:20:23;;;;;;;;;;;;;;;37.29;36.69;99979.91;7346425;19;19927;-63
2023/06/19 12:22:49;;;;;;;;;;;;;;;37.40;36.32;99981.91;7343966;19;19943;-63
2023/06/19 12:25:14;;;;;;;;;;;;;;;37.35;35.30;99984.44;7344257;19;19931;-63
2023/06/19 12:27:40;;;;;;;;;;;;;;;37.31;35.29;99988.72;7344871;19;19930;-64
2023/06/19 12:30:06;;;;;;;;;;;;;;;37.35;35.20;99984.44;7343564;19;19951;-63
2023/06/19 12:32:31;;;;;;;;;;;;;;;37.45;34.61;99988.56;7346557;19;19922;-63
2023/06/19 12:34:56;;;;;;;;;;;;;;;37.56;34.55;99979.63;7343336;19;19922;-63
2023/06/19 12:37:21;;;;;;;;;;;;;;;37.52;34.65;99934.84;7345242;19;19951;-63